createdAt,value
2023-04-22T00:00:45.694Z,100.00
2023-04-22T00:03:12.794Z,99.29
2023-04-22T00:05:40.025Z,99.97
2023-04-22T00:08:06.829Z,99.50
2023-04-22T00:10:33.796Z,99.29
2023-04-22T00:13:00.594Z,100.00
2023-04-22T00:15:27.785Z,99.68
2023-04-22T00:17:54.733Z,99.05
2023-04-22T00:20:22.285Z,98.12
2023-04-22T00:22:49.122Z,98.64
2023-04-22T00:25:16.712Z,98.82
2023-04-22T00:27:43.800Z,100.00
2023-04-22T00:30:11.228Z,99.42
2023-04-22T00:32:38.742Z,99.82
2023-04-22T00:35:06.140Z,98.89
2023-04-22T00:37:32.908Z,99.67
2023-04-22T00:39:59.679Z,100.00
2023-04-22T00:42:26.809Z,100.00
2023-04-22T00:44:53.728Z,99.96
2023-04-22T00:47:21.236Z,100.00
2023-04-22T00:49:49.653Z,100.00
2023-04-22T00:52:16.316Z,100.00
2023-04-22T00:54:43.127Z,100.00
2023-04-22T00:57:09.834Z,100.00
2023-04-22T00:59:36.996Z,100.00
2023-04-22T01:02:04.376Z,100.00
2023-04-22T01:04:31.681Z,100.00
2023-04-22T01:06:59.769Z,100.00
2023-04-22T01:09:26.500Z,100.00
2023-04-22T01:11:53.269Z,100.00
2023-04-22T01:14:20.320Z,100.00
2023-04-22T01:16:50.591Z,100.00
2023-04-22T01:19:17.821Z,100.00
2023-04-22T01:21:47.532Z,100.00
2023-04-22T01:24:14.273Z,100.00
2023-04-22T01:26:41.373Z,100.00
2023-04-22T01:29:08.395Z,100.00
2023-04-22T01:31:35.386Z,100.00
2023-04-22T01:34:02.282Z,100.00
2023-04-22T01:36:29.204Z,100.00
2023-04-22T01:38:56.555Z,100.00
2023-04-22T01:41:23.677Z,100.00
2023-04-22T01:43:51.725Z,100.00
2023-04-22T01:46:18.662Z,100.00
2023-04-22T01:48:50.704Z,100.00
2023-04-22T01:51:18.631Z,100.00
2023-04-22T01:53:45.494Z,100.00
2023-04-22T01:56:12.572Z,100.00
2023-04-22T01:58:39.989Z,100.00
2023-04-22T02:01:09.037Z,100.00
2023-04-22T02:03:36.349Z,100.00
2023-04-22T02:06:03.560Z,100.00
2023-04-22T02:08:30.701Z,100.00
2023-04-22T02:10:59.375Z,100.00
2023-04-22T02:13:26.084Z,100.00
2023-04-22T02:15:53.043Z,100.00
2023-04-22T02:18:19.958Z,100.00
2023-04-22T02:20:46.633Z,100.00
2023-04-22T02:23:13.470Z,100.00
2023-04-22T02:25:40.796Z,100.00
2023-04-22T02:28:07.557Z,100.00
2023-04-22T02:30:34.396Z,100.00
2023-04-22T02:33:02.025Z,100.00
2023-04-22T02:35:28.833Z,100.00
2023-04-22T02:37:55.658Z,100.00
2023-04-22T02:40:22.682Z,100.00
2023-04-22T02:42:49.448Z,100.00
2023-04-22T02:45:16.318Z,100.00
2023-04-22T02:47:43.242Z,100.00
2023-04-22T02:50:10.763Z,100.00
2023-04-22T02:52:37.487Z,100.00
2023-04-22T02:55:04.592Z,100.00
2023-04-22T02:57:31.407Z,100.00
2023-04-22T02:59:58.163Z,100.00
2023-04-22T03:02:25.162Z,100.00
2023-04-22T03:04:54.670Z,100.00
2023-04-22T03:07:21.428Z,100.00
2023-04-22T03:09:48.239Z,100.00
2023-04-22T03:12:15.011Z,100.00
2023-04-22T03:14:41.667Z,100.00
2023-04-22T03:17:08.802Z,100.00
2023-04-22T03:19:35.574Z,100.00
2023-04-22T03:22:02.702Z,100.00
2023-04-22T03:24:29.384Z,100.00
2023-04-22T03:26:56.146Z,100.00
2023-04-22T03:29:22.870Z,100.00
2023-04-22T03:31:49.986Z,100.00
2023-04-22T03:34:17.670Z,100.00
2023-04-22T03:36:44.335Z,100.00
2023-04-22T03:39:11.142Z,100.00
2023-04-22T03:41:37.824Z,100.00
2023-04-22T03:44:04.590Z,100.00
2023-04-22T03:46:32.286Z,100.00
2023-04-22T03:48:59.138Z,100.00
2023-04-22T03:51:26.225Z,99.94
2023-04-22T03:53:53.176Z,100.00
2023-04-22T03:56:19.957Z,100.00
2023-04-22T03:58:46.685Z,100.00
2023-04-22T04:01:13.412Z,100.00
2023-04-22T04:03:40.220Z,100.00
2023-04-22T04:06:07.607Z,100.00
2023-04-22T04:08:34.312Z,100.00
2023-04-22T04:11:01.269Z,100.00
2023-04-22T04:13:32.779Z,100.00
2023-04-22T04:16:00.607Z,100.00
2023-04-22T04:18:30.596Z,100.00
2023-04-22T04:20:57.517Z,100.00
2023-04-22T04:23:24.310Z,100.00
2023-04-22T04:25:52.518Z,100.00
2023-04-22T04:28:19.638Z,100.00
2023-04-22T04:30:46.492Z,100.00
2023-04-22T04:33:13.556Z,100.00
2023-04-22T04:35:41.909Z,100.00
2023-04-22T04:38:09.119Z,100.00
2023-04-22T04:40:37.486Z,100.00
2023-04-22T04:43:08.710Z,100.00
2023-04-22T04:45:37.059Z,100.00
2023-04-22T04:48:04.239Z,100.00
2023-04-22T04:50:32.084Z,100.00
2023-04-22T04:52:58.857Z,100.00
2023-04-22T04:55:25.655Z,100.00
2023-04-22T04:57:52.385Z,100.00
2023-04-22T05:00:19.446Z,100.00
2023-04-22T05:02:46.480Z,100.00
2023-04-22T05:05:13.717Z,100.00
2023-04-22T05:07:40.438Z,100.00
2023-04-22T05:10:07.752Z,100.00
2023-04-22T05:12:34.572Z,100.00
2023-04-22T05:15:01.965Z,100.00
2023-04-22T05:17:29.129Z,99.64
2023-04-22T05:19:55.926Z,100.00
2023-04-22T05:22:22.966Z,100.00
2023-04-22T05:24:49.893Z,100.00
2023-04-22T05:27:17.016Z,100.00
2023-04-22T05:29:43.788Z,99.84
2023-04-22T05:32:10.703Z,100.00
2023-04-22T05:34:37.881Z,99.67
2023-04-22T05:37:04.643Z,99.83
2023-04-22T05:39:31.837Z,96.90
2023-04-22T05:41:59.128Z,96.38
2023-04-22T05:44:25.994Z,95.49
2023-04-22T05:46:52.807Z,93.31
2023-04-22T05:49:19.579Z,93.00
2023-04-22T05:51:46.869Z,87.92
2023-04-22T05:54:13.651Z,88.09
2023-04-22T05:56:40.453Z,88.03
2023-04-22T05:59:07.230Z,90.15
2023-04-22T06:01:33.998Z,84.59
2023-04-22T06:04:01.090Z,85.63
2023-04-22T06:06:28.073Z,85.78
2023-04-22T06:08:55.047Z,83.31
2023-04-22T06:11:22.662Z,82.70
2023-04-22T06:13:49.705Z,82.31
2023-04-22T06:16:16.747Z,81.67
2023-04-22T06:18:46.697Z,80.74
2023-04-22T06:21:13.471Z,79.90
2023-04-22T06:23:40.307Z,77.71
2023-04-22T06:26:07.349Z,79.25
2023-04-22T06:28:34.194Z,76.49
2023-04-22T06:31:02.795Z,76.72
2023-04-22T06:33:29.618Z,74.66
2023-04-22T06:35:57.818Z,73.36
2023-04-22T06:38:25.493Z,74.11
2023-04-22T06:40:52.596Z,72.24
2023-04-22T06:43:19.315Z,72.52
2023-04-22T06:45:46.207Z,71.63
2023-04-22T06:48:13.463Z,70.78
2023-04-22T06:50:40.197Z,68.75
2023-04-22T06:53:07.183Z,71.53
2023-04-22T06:55:34.175Z,71.16
2023-04-22T06:58:01.723Z,70.60
2023-04-22T07:00:29.545Z,70.60
2023-04-22T07:02:56.455Z,70.28
2023-04-22T07:05:24.910Z,69.25
2023-04-22T07:07:51.851Z,69.80
2023-04-22T07:10:18.711Z,68.45
2023-04-22T07:12:46.077Z,69.22
2023-04-22T07:15:12.802Z,68.85
2023-04-22T07:17:39.592Z,70.46
2023-04-22T07:20:07.907Z,71.72
2023-04-22T07:22:34.731Z,70.77
2023-04-22T07:25:01.895Z,67.68
2023-04-22T07:27:28.941Z,69.12
2023-04-22T07:29:55.872Z,68.31
2023-04-22T07:32:23.061Z,67.60
2023-04-22T07:34:50.168Z,65.62
2023-04-22T07:37:16.941Z,67.50
2023-04-22T07:39:43.662Z,67.21
2023-04-22T07:42:10.518Z,65.37
2023-04-22T07:44:39.423Z,64.18
2023-04-22T07:47:08.711Z,64.59
2023-04-22T07:49:36.090Z,64.71
2023-04-22T07:52:02.988Z,61.97
2023-04-22T07:54:29.781Z,63.77
2023-04-22T07:56:58.546Z,61.81
2023-04-22T07:59:25.464Z,62.28
2023-04-22T08:01:52.296Z,63.83
2023-04-22T08:04:23.024Z,63.15
2023-04-22T08:06:49.999Z,61.81
2023-04-22T08:09:16.708Z,61.60
2023-04-22T08:11:43.473Z,61.52
2023-04-22T08:14:10.504Z,62.26
2023-04-22T08:16:38.533Z,62.83
2023-04-22T08:19:05.732Z,61.55
2023-04-22T08:21:33.387Z,62.28
2023-04-22T08:24:00.240Z,61.13
2023-04-22T08:26:27.528Z,60.04
2023-04-22T08:28:54.404Z,60.63
2023-04-22T08:31:21.991Z,60.19
2023-04-22T08:33:48.999Z,58.64
2023-04-22T08:36:16.502Z,58.60
2023-04-22T08:38:43.258Z,58.68
2023-04-22T08:41:10.342Z,59.55
2023-04-22T08:43:37.173Z,58.48
2023-04-22T08:46:03.947Z,59.11
2023-04-22T08:48:31.038Z,58.75
2023-04-22T08:50:58.185Z,57.41
2023-04-22T08:53:25.226Z,56.83
2023-04-22T08:55:52.561Z,56.81
2023-04-22T08:58:19.514Z,57.28
2023-04-22T09:00:46.247Z,56.20
2023-04-22T09:03:14.076Z,56.58
2023-04-22T09:05:41.582Z,57.40
2023-04-22T09:08:08.836Z,57.90
2023-04-22T09:10:39.419Z,56.92
2023-04-22T09:13:07.056Z,56.44
2023-04-22T09:15:34.868Z,56.41
2023-04-22T09:18:03.381Z,53.74
2023-04-22T09:20:30.787Z,54.85
2023-04-22T09:22:58.897Z,55.12
2023-04-22T09:25:27.196Z,54.55
2023-04-22T09:27:56.561Z,53.44
2023-04-22T09:30:29.335Z,54.11
2023-04-22T09:33:04.791Z,53.53
2023-04-22T09:35:35.794Z,52.86
2023-04-22T09:38:04.661Z,52.77
2023-04-22T09:40:32.436Z,52.95
2023-04-22T09:43:03.121Z,52.18
2023-04-22T09:45:31.490Z,51.53
2023-04-22T09:48:02.965Z,52.23
2023-04-22T09:50:29.910Z,52.01
2023-04-22T09:52:59.560Z,50.70
2023-04-22T09:55:29.210Z,51.37
2023-04-22T09:57:57.519Z,52.17
2023-04-22T10:00:28.136Z,50.71
2023-04-22T10:02:55.060Z,50.39
2023-04-22T10:05:22.483Z,50.97
2023-04-22T10:07:49.335Z,50.95
2023-04-22T10:10:16.215Z,51.55
2023-04-22T10:12:43.322Z,50.86
2023-04-22T10:15:10.372Z,50.43
2023-04-22T10:17:39.117Z,50.25
2023-04-22T10:20:14.068Z,50.00
2023-04-22T10:22:43.052Z,50.32
2023-04-22T10:25:14.501Z,49.58
2023-04-22T10:27:41.474Z,51.31
2023-04-22T10:30:09.814Z,50.21
2023-04-22T10:32:37.268Z,49.78
2023-04-22T10:35:13.003Z,49.61
2023-04-22T10:37:43.670Z,49.46
2023-04-22T10:40:16.426Z,49.13
2023-04-22T10:42:51.631Z,48.44
2023-04-22T10:45:19.247Z,48.67
2023-04-22T10:47:46.473Z,47.83
2023-04-22T10:50:22.522Z,48.85
2023-04-22T10:52:52.048Z,47.73
2023-04-22T10:55:19.648Z,49.00
2023-04-22T10:57:48.073Z,48.84
2023-04-22T11:00:35.233Z,49.51
2023-04-22T11:03:11.219Z,48.02
2023-04-22T11:05:38.666Z,48.42
2023-04-22T11:08:25.778Z,48.05
2023-04-22T11:10:54.164Z,48.71
2023-04-22T11:13:21.978Z,48.95
2023-04-22T11:15:50.811Z,49.39
2023-04-22T11:18:25.411Z,48.17
2023-04-22T11:20:53.842Z,48.63
2023-04-22T11:23:24.454Z,47.49
2023-04-22T11:25:59.195Z,45.46
2023-04-22T11:28:26.407Z,45.71
2023-04-22T11:30:54.007Z,46.31
2023-04-22T11:33:21.023Z,44.47
2023-04-22T11:35:49.523Z,43.28
2023-04-22T11:38:16.363Z,44.39
2023-04-22T11:40:46.465Z,45.41
2023-04-22T11:43:14.237Z,45.04
2023-04-22T11:45:41.416Z,46.78
2023-04-22T11:48:11.297Z,45.08
2023-04-22T11:50:40.384Z,45.72
2023-04-22T11:53:21.223Z,42.28
2023-04-22T11:55:53.310Z,41.43
2023-04-22T11:58:25.049Z,41.94
2023-04-22T12:00:53.266Z,42.99
2023-04-22T12:03:28.620Z,41.80
2023-04-22T12:06:04.237Z,43.31
2023-04-22T12:08:34.016Z,42.11
2023-04-22T12:11:04.356Z,40.51
2023-04-22T12:13:34.480Z,41.62
2023-04-22T12:16:04.693Z,41.65
2023-04-22T12:18:38.372Z,42.60
2023-04-22T12:21:14.730Z,43.34
2023-04-22T12:23:45.996Z,43.10
2023-04-22T12:26:13.604Z,43.77
2023-04-22T12:28:41.784Z,42.81
2023-04-22T12:31:09.195Z,44.32
2023-04-22T12:33:37.467Z,43.96
2023-04-22T12:36:05.774Z,43.29
2023-04-22T12:38:33.012Z,42.84
2023-04-22T12:41:00.112Z,41.83
2023-04-22T12:43:27.201Z,41.69
2023-04-22T12:45:54.162Z,40.81
2023-04-22T12:48:21.341Z,41.33
2023-04-22T12:50:48.329Z,41.81
2023-04-22T12:53:15.708Z,43.12
2023-04-22T12:55:44.672Z,41.58
2023-04-22T12:58:12.787Z,41.92
2023-04-22T13:00:40.237Z,40.59
2023-04-22T13:03:07.367Z,41.24
2023-04-22T13:05:34.840Z,41.49
2023-04-22T13:08:06.979Z,40.95
2023-04-22T13:10:35.404Z,40.05
2023-04-22T13:15:34.947Z,40.15
2023-04-22T13:18:02.566Z,40.37
2023-04-22T13:20:29.348Z,41.29
2023-04-22T13:22:56.293Z,41.20
2023-04-22T13:25:23.283Z,41.26
2023-04-22T13:27:50.357Z,40.38
2023-04-22T13:30:17.106Z,40.75
2023-04-22T13:32:43.900Z,41.04
2023-04-22T13:35:11.316Z,40.97
2023-04-22T13:37:38.019Z,40.64
2023-04-22T13:40:06.496Z,39.53
2023-04-22T13:42:33.231Z,41.27
2023-04-22T13:45:00.166Z,40.60
2023-04-22T13:47:27.102Z,41.20
2023-04-22T13:49:54.009Z,40.65
2023-04-22T13:52:21.085Z,39.71
2023-04-22T13:54:47.917Z,40.60
2023-04-22T13:57:15.119Z,41.50
2023-04-22T13:59:42.378Z,40.35
2023-04-22T14:02:09.831Z,41.40
2023-04-22T14:04:36.676Z,40.58
2023-04-22T14:07:04.449Z,40.24
2023-04-22T14:09:31.474Z,40.85
2023-04-22T14:11:59.397Z,41.05
2023-04-22T14:14:26.246Z,38.77
2023-04-22T14:16:53.160Z,38.61
2023-04-22T14:19:20.482Z,36.70
2023-04-22T14:21:47.642Z,37.39
2023-04-22T14:24:14.761Z,37.36
2023-04-22T14:26:41.880Z,37.11
2023-04-22T14:29:08.715Z,38.19
2023-04-22T14:31:35.538Z,38.11
2023-04-22T14:34:02.329Z,37.33
2023-04-22T14:36:29.158Z,36.86
2023-04-22T14:38:56.991Z,35.16
2023-04-22T14:41:24.446Z,35.62
2023-04-22T14:43:51.270Z,35.65
2023-04-22T14:46:18.295Z,36.39
2023-04-22T14:48:45.187Z,36.17
2023-04-22T14:51:12.296Z,35.62
2023-04-22T14:53:39.384Z,35.67
2023-04-22T14:56:06.150Z,36.20
2023-04-22T14:58:32.932Z,35.62
2023-04-22T15:01:00.343Z,34.93
2023-04-22T15:03:27.606Z,34.44
2023-04-22T15:05:55.635Z,34.63
2023-04-22T15:08:25.610Z,35.13
2023-04-22T15:10:52.595Z,35.04
2023-04-22T15:13:20.252Z,35.55
2023-04-22T15:15:47.338Z,35.77
2023-04-22T15:18:14.560Z,35.21
2023-04-22T15:20:41.451Z,36.41
2023-04-22T15:23:08.341Z,35.86
2023-04-22T15:25:36.034Z,37.31
2023-04-22T15:28:04.337Z,36.13
2023-04-22T15:30:31.061Z,36.91
2023-04-22T15:32:58.013Z,38.40
2023-04-22T15:35:24.941Z,38.62
2023-04-22T15:37:52.974Z,38.57
2023-04-22T15:40:19.725Z,38.83
2023-04-22T15:42:46.727Z,37.75
2023-04-22T15:45:13.625Z,38.75
2023-04-22T15:47:40.919Z,38.59
2023-04-22T15:50:09.440Z,38.52
2023-04-22T15:52:38.151Z,39.63
2023-04-22T15:55:06.407Z,38.98
2023-04-22T15:57:35.392Z,39.36
2023-04-22T16:00:11.759Z,39.86
2023-04-22T16:02:40.517Z,40.80
2023-04-22T16:05:08.043Z,41.09
2023-04-22T16:07:35.162Z,41.36
2023-04-22T16:10:02.713Z,41.43
2023-04-22T16:12:30.931Z,41.82
2023-04-22T16:14:58.863Z,42.04
2023-04-22T16:17:25.708Z,42.81
2023-04-22T16:19:52.641Z,43.28
2023-04-22T16:22:19.535Z,43.43
2023-04-22T16:24:46.318Z,43.63
2023-04-22T16:27:17.282Z,43.78
2023-04-22T16:29:44.485Z,44.42
2023-04-22T16:32:11.770Z,44.39
2023-04-22T16:34:38.878Z,45.61
2023-04-22T16:37:06.316Z,47.04
2023-04-22T16:39:33.482Z,50.50
2023-04-22T16:42:00.379Z,52.31
2023-04-22T16:44:27.158Z,53.67
2023-04-22T16:46:54.097Z,54.73
2023-04-22T16:49:21.490Z,53.80
2023-04-22T16:51:48.782Z,53.75
2023-04-22T16:54:15.728Z,54.86
2023-04-22T16:56:42.464Z,54.34
2023-04-22T16:59:09.520Z,54.68
2023-04-22T17:01:36.621Z,54.61
2023-04-22T17:04:03.602Z,54.80
2023-04-22T17:06:30.515Z,54.32
2023-04-22T17:08:57.471Z,53.42
2023-04-22T17:11:24.359Z,53.30
2023-04-22T17:13:51.647Z,53.78
2023-04-22T17:16:18.964Z,53.82
2023-04-22T17:18:47.212Z,53.52
2023-04-22T17:21:14.419Z,52.90
2023-04-22T17:23:41.231Z,52.83
2023-04-22T17:26:08.250Z,53.00
2023-04-22T17:28:35.406Z,52.73
2023-04-22T17:31:03.073Z,53.56
2023-04-22T17:33:30.537Z,52.05
2023-04-22T17:35:57.247Z,52.71
2023-04-22T17:38:23.976Z,52.80
2023-04-22T17:40:50.955Z,52.57
2023-04-22T17:43:18.132Z,53.27
2023-04-22T17:45:45.083Z,53.51
2023-04-22T17:48:12.002Z,53.85
2023-04-22T17:50:39.375Z,53.94
2023-04-22T17:53:06.371Z,54.22
2023-04-22T17:55:35.467Z,54.16
2023-04-22T17:58:03.465Z,55.02
2023-04-22T18:00:31.117Z,55.13
2023-04-22T18:02:58.357Z,54.42
2023-04-22T18:05:27.315Z,55.52
2023-04-22T18:08:03.138Z,56.24
2023-04-22T18:10:31.196Z,56.62
2023-04-22T18:12:58.221Z,56.66
2023-04-22T18:15:25.166Z,56.29
2023-04-22T18:17:52.083Z,57.64
2023-04-22T18:20:20.133Z,58.28
2023-04-22T18:22:48.308Z,58.55
2023-04-22T18:25:15.399Z,58.74
2023-04-22T18:27:42.251Z,58.79
2023-04-22T18:30:09.761Z,58.86
2023-04-22T18:32:37.509Z,58.42
2023-04-22T18:35:04.975Z,58.04
2023-04-22T18:37:32.961Z,57.86
2023-04-22T18:39:59.746Z,58.10
2023-04-22T18:42:26.773Z,57.27
2023-04-22T18:44:53.954Z,56.51
2023-04-22T18:47:21.110Z,56.64
2023-04-22T18:49:47.845Z,56.44
2023-04-22T18:52:16.324Z,56.47
2023-04-22T18:54:43.553Z,56.85
2023-04-22T18:57:10.730Z,56.37
2023-04-22T18:59:37.565Z,56.19
2023-04-22T19:02:06.856Z,56.74
2023-04-22T19:04:33.898Z,56.50
2023-04-22T19:07:01.643Z,56.38
2023-04-22T19:09:29.704Z,56.21
2023-04-22T19:11:56.836Z,57.10
2023-04-22T19:14:23.670Z,56.86
2023-04-22T19:16:50.667Z,57.59
2023-04-22T19:19:18.815Z,57.79
2023-04-22T19:21:45.923Z,57.86
2023-04-22T19:24:14.625Z,58.64
2023-04-22T19:26:41.664Z,58.49
2023-04-22T19:29:08.622Z,58.22
2023-04-22T19:31:35.556Z,58.32
2023-04-22T19:34:03.147Z,58.60
2023-04-22T19:36:29.986Z,59.84
2023-04-22T19:38:57.088Z,59.83
2023-04-22T19:41:24.643Z,59.72
2023-04-22T19:43:51.754Z,60.83
2023-04-22T19:46:18.643Z,60.80
2023-04-22T19:48:45.689Z,61.36
2023-04-22T19:51:13.019Z,62.56
2023-04-22T19:53:41.655Z,62.13
2023-04-22T19:56:11.579Z,61.33
2023-04-22T19:58:39.392Z,61.83
2023-04-22T20:01:06.500Z,61.68
2023-04-22T20:03:34.417Z,61.32
2023-04-22T20:06:01.769Z,60.67
2023-04-22T20:08:29.614Z,60.16
2023-04-22T20:10:56.653Z,60.93
2023-04-22T20:13:23.564Z,61.40
2023-04-22T20:15:50.859Z,62.40
2023-04-22T20:18:18.034Z,62.45
2023-04-22T20:20:46.984Z,63.09
2023-04-22T20:23:15.156Z,62.96
2023-04-22T20:25:44.446Z,62.32
2023-04-22T20:28:11.316Z,62.46
2023-04-22T20:30:38.572Z,62.58
2023-04-22T20:33:06.002Z,62.20
2023-04-22T20:35:33.024Z,62.63
2023-04-22T20:38:01.177Z,63.45
2023-04-22T20:40:29.275Z,63.14
2023-04-22T20:42:57.682Z,62.92
2023-04-22T20:45:24.791Z,62.86
2023-04-22T20:47:51.884Z,63.09
2023-04-22T20:50:19.491Z,63.77
2023-04-22T20:52:47.033Z,63.41
2023-04-22T20:55:13.713Z,62.92
2023-04-22T20:57:41.482Z,64.36
2023-04-22T21:00:10.404Z,64.06
2023-04-22T21:02:38.163Z,64.37
2023-04-22T21:05:05.914Z,64.07
2023-04-22T21:07:33.183Z,64.57
2023-04-22T21:10:00.435Z,64.96
2023-04-22T21:12:27.673Z,65.14
2023-04-22T21:14:55.261Z,66.03
2023-04-22T21:17:25.983Z,66.40
2023-04-22T21:19:54.926Z,65.84
2023-04-22T21:22:24.179Z,66.25
2023-04-22T21:24:52.402Z,66.76
2023-04-22T21:27:20.550Z,66.79
2023-04-22T21:29:48.728Z,67.23
2023-04-22T21:32:16.558Z,67.32
2023-04-22T21:34:44.179Z,67.58
2023-04-22T21:37:11.673Z,68.04
2023-04-22T21:39:39.095Z,67.94
2023-04-22T21:42:09.125Z,67.61
2023-04-22T21:44:37.446Z,68.24
2023-04-22T21:47:05.320Z,68.33
2023-04-22T21:49:32.039Z,68.46
2023-04-22T21:51:59.707Z,68.53
2023-04-22T21:54:27.117Z,68.97
2023-04-22T21:56:53.952Z,68.84
2023-04-22T21:59:20.708Z,69.13
2023-04-22T22:01:47.684Z,69.21
2023-04-22T22:04:16.017Z,69.41
2023-04-22T22:06:43.650Z,69.47
2023-04-22T22:09:11.884Z,69.80
2023-04-22T22:11:38.817Z,70.76
2023-04-22T22:14:05.774Z,71.44
2023-04-22T22:16:33.615Z,73.04
2023-04-22T22:19:04.839Z,73.62
2023-04-22T22:21:33.369Z,74.04
2023-04-22T22:24:00.763Z,74.18
2023-04-22T22:26:28.463Z,75.69
2023-04-22T22:28:55.537Z,75.12
2023-04-22T22:31:22.307Z,75.42
2023-04-22T22:33:49.245Z,76.46
2023-04-22T22:36:16.874Z,75.69
2023-04-22T22:38:43.909Z,76.16
2023-04-22T22:41:10.790Z,75.60
2023-04-22T22:43:37.495Z,76.76
2023-04-22T22:46:04.572Z,76.98
2023-04-22T22:48:31.404Z,77.04
2023-04-22T22:50:58.480Z,76.01
2023-04-22T22:53:25.167Z,76.41
2023-04-22T22:55:52.316Z,76.64
2023-04-22T22:58:19.031Z,76.82
2023-04-22T23:00:45.781Z,77.68
2023-04-22T23:03:12.887Z,77.68
2023-04-22T23:05:39.852Z,77.56
2023-04-22T23:08:07.151Z,77.58
2023-04-22T23:10:33.871Z,77.21
2023-04-22T23:13:00.652Z,77.00
2023-04-22T23:15:27.358Z,77.25
2023-04-22T23:17:54.132Z,76.38
2023-04-22T23:20:22.406Z,77.00
2023-04-22T23:22:50.002Z,77.51
2023-04-22T23:25:17.325Z,77.55
2023-04-22T23:27:44.485Z,77.88
2023-04-22T23:30:11.745Z,77.63
2023-04-22T23:32:40.716Z,78.49
2023-04-22T23:35:08.730Z,78.44
2023-04-22T23:37:37.946Z,78.00
2023-04-22T23:40:06.999Z,78.88
2023-04-22T23:42:34.040Z,78.43
2023-04-22T23:45:00.806Z,79.01
2023-04-22T23:47:27.658Z,79.07
2023-04-22T23:49:54.393Z,78.92
2023-04-22T23:52:21.178Z,79.60
2023-04-22T23:54:48.557Z,80.15
2023-04-22T23:57:16.366Z,80.20
2023-04-22T23:59:43.738Z,80.07
